createdAt,value
2018-07-19T00:00:30.374Z,95.20
2018-07-19T00:02:57.965Z,95.40
2018-07-19T00:05:26.401Z,95.40
2018-07-19T00:07:53.957Z,95.60
2018-07-19T00:10:21.545Z,95.60
2018-07-19T00:12:49.138Z,95.70
2018-07-19T00:15:16.748Z,95.80
2018-07-19T00:17:44.301Z,95.80
2018-07-19T00:20:11.869Z,95.90
2018-07-19T00:22:39.483Z,96.00
2018-07-19T00:25:07.022Z,96.00
2018-07-19T00:27:34.578Z,96.00
2018-07-19T00:30:02.259Z,96.10
2018-07-19T00:32:29.805Z,96.20
2018-07-19T00:34:57.376Z,96.30
2018-07-19T00:37:24.971Z,96.40
2018-07-19T00:39:52.584Z,96.70
2018-07-19T00:42:20.158Z,96.90
2018-07-19T00:44:47.741Z,97.00
2018-07-19T00:47:15.348Z,97.10
2018-07-19T00:49:42.894Z,97.10
2018-07-19T00:52:10.497Z,97.30
2018-07-19T00:54:38.054Z,97.40
2018-07-19T00:57:05.700Z,97.30
2018-07-19T00:59:33.296Z,97.40
2018-07-19T01:02:00.902Z,97.50
2018-07-19T01:04:28.507Z,97.50
2018-07-19T01:06:56.081Z,97.40
2018-07-19T01:09:23.704Z,97.50
2018-07-19T01:11:51.265Z,97.60
2018-07-19T01:14:18.880Z,97.60
2018-07-19T01:16:46.454Z,97.70
2018-07-19T01:19:14.034Z,97.70
2018-07-19T01:21:41.640Z,97.80
2018-07-19T01:24:09.230Z,97.80
2018-07-19T01:26:36.777Z,98.10
2018-07-19T01:29:04.456Z,98.30
2018-07-19T01:31:32.085Z,98.40
2018-07-19T01:33:59.627Z,98.50
2018-07-19T01:36:27.190Z,98.60
2018-07-19T01:38:54.816Z,98.60
2018-07-19T01:43:30.771Z,98.60
2018-07-19T01:45:58.364Z,98.80
2018-07-19T01:48:25.935Z,98.80
2018-07-19T01:50:53.551Z,98.90
2018-07-19T01:53:21.125Z,98.90
2018-07-19T01:55:48.685Z,98.90
2018-07-19T01:58:16.228Z,98.90
2018-07-19T02:00:43.845Z,99.00
2018-07-19T02:03:11.444Z,98.90
2018-07-19T02:05:39.031Z,98.90
2018-07-19T02:08:06.593Z,99.00
2018-07-19T02:10:34.217Z,99.00
2018-07-19T02:13:01.793Z,99.10
2018-07-19T02:15:29.377Z,99.10
2018-07-19T02:17:56.957Z,99.10
2018-07-19T02:20:24.554Z,99.10
2018-07-19T02:22:52.126Z,99.20
2018-07-19T02:25:19.697Z,99.20
2018-07-19T02:27:47.322Z,99.30
2018-07-19T02:30:14.913Z,99.30
2018-07-19T02:32:42.543Z,99.30
2018-07-19T02:37:37.655Z,99.40
2018-07-19T02:40:05.302Z,99.50
2018-07-19T02:42:32.848Z,99.50
2018-07-19T02:45:00.473Z,99.40
2018-07-19T02:47:28.070Z,99.50
2018-07-19T02:49:55.634Z,99.60
2018-07-19T02:52:23.216Z,99.90
2018-07-19T02:54:50.826Z,99.60
2018-07-19T02:57:18.396Z,99.70
2018-07-19T02:59:45.972Z,99.80
2018-07-19T03:02:13.637Z,99.80
2018-07-19T03:04:41.197Z,99.80
2018-07-19T03:07:08.790Z,99.80
2018-07-19T03:09:36.343Z,99.90
2018-07-19T03:12:03.902Z,99.90
2018-07-19T03:14:31.460Z,99.90
2018-07-19T03:16:59.036Z,99.90
2018-07-19T03:19:26.639Z,99.90
2018-07-19T03:21:54.256Z,99.90
2018-07-19T03:24:21.851Z,99.90
2018-07-19T03:26:49.400Z,99.90
2018-07-19T03:29:17.016Z,99.90
2018-07-19T03:31:44.570Z,99.90
2018-07-19T03:34:12.172Z,99.90
2018-07-19T03:36:39.766Z,99.90
2018-07-19T03:39:08.189Z,99.90
2018-07-19T03:41:35.821Z,99.90
2018-07-19T03:44:03.670Z,99.90
2018-07-19T03:46:31.274Z,99.90
2018-07-19T03:48:58.859Z,99.90
2018-07-19T03:51:26.435Z,99.90
2018-07-19T03:53:54.058Z,99.90
2018-07-19T03:56:21.629Z,99.90
2018-07-19T04:01:16.829Z,99.90
2018-07-19T04:03:44.441Z,99.90
2018-07-19T04:06:11.997Z,99.90
2018-07-19T04:08:39.608Z,99.90
2018-07-19T04:11:07.177Z,99.90
2018-07-19T04:16:02.324Z,99.90
2018-07-19T04:18:29.934Z,99.90
2018-07-19T04:20:57.520Z,99.90
2018-07-19T04:23:25.129Z,99.90
2018-07-19T04:30:47.729Z,99.90
2018-07-19T04:33:15.319Z,99.90
2018-07-19T04:35:42.882Z,99.90
2018-07-19T04:38:10.591Z,99.90
2018-07-19T04:43:05.641Z,99.90
2018-07-19T04:45:33.190Z,99.90
2018-07-19T04:48:00.762Z,99.90
2018-07-19T04:50:28.358Z,99.90
2018-07-19T04:52:55.913Z,99.90
2018-07-19T04:55:23.466Z,99.90
2018-07-19T04:57:51.138Z,99.90
2018-07-19T05:00:18.713Z,99.90
2018-07-19T05:02:46.340Z,99.90
2018-07-19T05:05:13.934Z,99.90
2018-07-19T05:07:41.486Z,99.90
2018-07-19T05:10:09.110Z,99.90
2018-07-19T05:12:36.639Z,99.90
2018-07-19T05:15:04.236Z,99.90
2018-07-19T05:17:31.818Z,99.90
2018-07-19T05:19:59.425Z,99.90
2018-07-19T05:22:27.045Z,99.90
2018-07-19T05:24:54.614Z,99.90
2018-07-19T05:27:22.258Z,99.90
2018-07-19T05:29:49.894Z,99.90
2018-07-19T05:32:17.458Z,99.90
2018-07-19T05:34:45.087Z,99.90
2018-07-19T05:37:12.684Z,99.90
2018-07-19T05:39:40.286Z,99.70
2018-07-19T05:42:08.544Z,99.70
2018-07-19T05:44:36.141Z,99.30
2018-07-19T05:47:03.761Z,98.70
2018-07-19T05:49:31.315Z,98.20
2018-07-19T05:51:58.900Z,97.70
2018-07-19T05:54:26.494Z,97.20
2018-07-19T05:56:54.062Z,96.70
2018-07-19T05:59:21.682Z,96.00
2018-07-19T06:04:16.868Z,94.80
2018-07-19T06:06:44.514Z,94.40
2018-07-19T06:09:12.165Z,94.30
2018-07-19T06:11:39.958Z,94.10
2018-07-19T06:14:07.551Z,93.70
2018-07-19T06:16:35.119Z,93.30
2018-07-19T06:19:02.788Z,92.90
2018-07-19T06:21:30.665Z,92.10
2018-07-19T06:23:58.286Z,91.60
2018-07-19T06:26:25.859Z,91.30
2018-07-19T06:28:53.457Z,91.20
2018-07-19T06:31:21.248Z,90.80
2018-07-19T06:33:48.772Z,90.40
2018-07-19T06:36:16.346Z,90.00
2018-07-19T06:38:43.952Z,90.20
2018-07-19T06:41:11.679Z,90.50
2018-07-19T06:43:39.325Z,90.10
2018-07-19T06:46:06.904Z,90.30
2018-07-19T06:48:34.491Z,89.70
2018-07-19T06:51:02.049Z,89.40
2018-07-19T06:53:29.627Z,88.70
2018-07-19T06:55:57.201Z,88.50
2018-07-19T06:58:24.865Z,88.40
2018-07-19T07:00:52.421Z,88.50
2018-07-19T07:03:20.037Z,88.20
2018-07-19T07:05:47.642Z,87.90
2018-07-19T07:08:15.235Z,87.10
2018-07-19T07:10:42.806Z,86.50
2018-07-19T07:13:10.427Z,86.00
2018-07-19T07:15:38.130Z,85.20
2018-07-19T07:18:05.788Z,84.70
2018-07-19T07:20:33.433Z,84.00
2018-07-19T07:23:01.020Z,84.00
2018-07-19T07:25:33.894Z,84.20
2018-07-19T07:28:01.493Z,83.80
2018-07-19T07:30:29.109Z,83.30
2018-07-19T07:32:56.668Z,83.20
2018-07-19T07:35:24.364Z,82.80
2018-07-19T07:40:24.890Z,82.50
2018-07-19T07:42:52.607Z,81.80
2018-07-19T07:45:20.285Z,81.60
2018-07-19T07:47:47.874Z,81.50
2018-07-19T07:52:44.257Z,80.50
2018-07-19T07:55:11.900Z,79.80
2018-07-19T07:57:39.464Z,79.70
2018-07-19T08:00:07.186Z,79.70
2018-07-19T08:02:41.470Z,79.50
2018-07-19T08:05:09.093Z,79.10
2018-07-19T08:07:36.684Z,77.70
2018-07-19T08:10:04.472Z,77.00
2018-07-19T08:12:32.080Z,76.50
2018-07-19T08:14:59.663Z,76.00
2018-07-19T08:17:27.374Z,76.30
2018-07-19T08:19:54.960Z,76.00
2018-07-19T08:22:22.523Z,75.60
2018-07-19T08:24:50.052Z,75.20
2018-07-19T08:27:17.605Z,75.30
2018-07-19T08:29:45.156Z,75.70
2018-07-19T08:32:12.763Z,75.90
2018-07-19T08:34:40.367Z,75.10
2018-07-19T08:37:07.960Z,74.70
2018-07-19T08:39:35.507Z,75.00
2018-07-19T08:42:03.110Z,75.50
2018-07-19T08:44:30.673Z,75.60
2018-07-19T08:46:58.298Z,74.60
2018-07-19T08:49:25.886Z,74.80
2018-07-19T08:51:53.468Z,75.80
2018-07-19T08:54:21.134Z,73.70
2018-07-19T08:56:48.720Z,70.60
2018-07-19T08:59:16.460Z,70.30
2018-07-19T09:01:44.044Z,70.00
2018-07-19T09:04:11.709Z,68.70
2018-07-19T09:06:39.333Z,67.80
2018-07-19T09:09:08.295Z,68.00
2018-07-19T09:11:35.937Z,68.20
2018-07-19T09:14:03.872Z,68.30
2018-07-19T09:16:31.393Z,68.50
2018-07-19T09:18:58.971Z,68.00
2018-07-19T09:21:26.555Z,66.80
2018-07-19T09:23:54.110Z,65.40
2018-07-19T09:26:21.669Z,64.00
2018-07-19T09:28:49.221Z,62.80
2018-07-19T09:31:16.795Z,64.10
2018-07-19T09:33:44.359Z,61.90
2018-07-19T09:36:11.929Z,62.10
2018-07-19T09:38:39.543Z,61.20
2018-07-19T09:41:07.055Z,62.20
2018-07-19T09:43:34.830Z,60.80
2018-07-19T09:46:02.392Z,60.00
2018-07-19T09:53:24.952Z,59.60
2018-07-19T09:55:52.544Z,58.80
2018-07-19T09:58:20.725Z,58.60
2018-07-19T10:00:54.084Z,58.30
2018-07-19T10:03:21.629Z,55.70
2018-07-19T10:05:49.335Z,53.80
2018-07-19T10:08:16.870Z,53.90
2018-07-19T10:10:44.442Z,53.00
2018-07-19T10:13:12.016Z,50.70
2018-07-19T10:15:39.576Z,49.90
2018-07-19T10:18:07.168Z,49.80
2018-07-19T10:20:34.781Z,49.60
2018-07-19T10:23:02.340Z,49.00
2018-07-19T10:25:29.917Z,48.50
2018-07-19T10:27:57.504Z,47.90
2018-07-19T10:30:25.145Z,48.50
2018-07-19T10:32:54.281Z,47.30
2018-07-19T10:35:22.067Z,45.70
2018-07-19T10:37:49.652Z,46.40
2018-07-19T10:40:17.235Z,45.00
2018-07-19T10:42:44.805Z,43.70
2018-07-19T10:45:12.397Z,43.70
2018-07-19T10:47:40.026Z,44.10
2018-07-19T10:50:07.566Z,43.60
2018-07-19T10:52:35.145Z,44.30
2018-07-19T10:55:02.760Z,43.90
2018-07-19T10:57:30.430Z,42.40
2018-07-19T10:59:58.015Z,41.90
2018-07-19T11:02:25.593Z,41.90
2018-07-19T11:04:53.175Z,41.50
2018-07-19T11:07:20.805Z,42.30
2018-07-19T11:09:48.418Z,42.00
2018-07-19T11:12:16.189Z,41.00
2018-07-19T11:14:43.760Z,39.40
2018-07-19T11:17:11.535Z,39.00
2018-07-19T11:19:39.357Z,38.80
2018-07-19T11:22:07.031Z,38.60
2018-07-19T11:24:34.581Z,38.30
2018-07-19T11:27:02.182Z,38.00
2018-07-19T11:29:29.739Z,38.40
2018-07-19T11:31:57.306Z,39.00
2018-07-19T11:34:24.837Z,38.70
2018-07-19T11:36:52.416Z,38.90
2018-07-19T11:39:20.033Z,39.00
2018-07-19T11:41:47.944Z,37.60
2018-07-19T11:44:15.494Z,37.00
2018-07-19T11:46:43.072Z,35.70
2018-07-19T11:49:10.646Z,35.00
2018-07-19T11:51:38.256Z,36.60
2018-07-19T11:54:05.904Z,37.20
2018-07-19T11:56:33.452Z,37.10
2018-07-19T11:59:01.425Z,36.90
2018-07-19T12:01:28.978Z,36.70
2018-07-19T12:03:56.709Z,36.90
2018-07-19T12:06:24.288Z,36.30
2018-07-19T12:08:51.836Z,35.30
2018-07-19T12:11:19.403Z,34.80
2018-07-19T12:13:47.180Z,35.00
2018-07-19T12:16:14.784Z,34.60
2018-07-19T12:18:42.342Z,34.40
2018-07-19T12:21:09.946Z,34.20
2018-07-19T12:23:37.493Z,34.00
2018-07-19T12:26:05.076Z,33.80
2018-07-19T12:28:32.680Z,34.30
2018-07-19T12:31:00.265Z,35.30
2018-07-19T12:33:27.823Z,35.70
2018-07-19T12:35:55.373Z,36.70
2018-07-19T12:38:22.974Z,36.90
2018-07-19T12:40:50.854Z,37.60
2018-07-19T12:43:18.421Z,37.70
2018-07-19T12:45:46.016Z,37.70
2018-07-19T12:48:13.590Z,36.50
2018-07-19T12:50:41.194Z,35.40
2018-07-19T12:53:08.817Z,35.00
2018-07-19T12:55:36.476Z,33.90
2018-07-19T12:58:04.131Z,32.80
2018-07-19T13:00:31.763Z,32.60
2018-07-19T13:02:59.439Z,33.90
2018-07-19T13:05:27.032Z,33.90
2018-07-19T13:07:54.607Z,32.60
2018-07-19T13:12:49.869Z,31.60
2018-07-19T13:15:17.551Z,31.20
2018-07-19T13:17:45.163Z,31.60
2018-07-19T13:20:12.697Z,31.30
2018-07-19T13:22:40.271Z,30.60
2018-07-19T13:25:07.947Z,31.40
2018-07-19T13:27:35.531Z,31.00
2018-07-19T13:30:03.175Z,30.90
2018-07-19T13:32:30.771Z,31.50
2018-07-19T13:34:58.320Z,30.70
2018-07-19T13:37:25.943Z,31.00
2018-07-19T13:39:53.491Z,30.00
2018-07-19T13:42:21.101Z,30.90
2018-07-19T13:44:49.146Z,32.30
2018-07-19T13:47:16.709Z,33.00
2018-07-19T13:49:44.288Z,32.50
2018-07-19T13:52:11.911Z,31.40
2018-07-19T13:54:46.424Z,30.70
2018-07-19T13:57:14.162Z,31.10
2018-07-19T13:59:41.746Z,30.40
2018-07-19T14:02:09.384Z,30.30
2018-07-19T14:04:36.941Z,30.50
2018-07-19T14:07:04.561Z,29.80
2018-07-19T14:09:32.164Z,29.20
2018-07-19T14:11:59.820Z,29.90
2018-07-19T14:14:27.432Z,30.00
2018-07-19T14:16:55.014Z,31.20
2018-07-19T14:19:22.578Z,30.40
2018-07-19T14:21:50.157Z,30.50
2018-07-19T14:24:17.820Z,30.40
2018-07-19T14:26:45.394Z,29.70
2018-07-19T14:29:12.964Z,29.50
2018-07-19T14:31:40.548Z,29.30
2018-07-19T14:34:08.136Z,29.40
2018-07-19T14:39:06.023Z,29.20
2018-07-19T14:41:33.568Z,29.10
2018-07-19T14:44:01.123Z,29.80
2018-07-19T14:46:28.746Z,29.50
2018-07-19T14:48:56.362Z,30.00
2018-07-19T14:51:24.160Z,30.40
2018-07-19T14:53:51.768Z,30.90
2018-07-19T14:56:19.394Z,30.90
2018-07-19T14:58:47.022Z,30.60
2018-07-19T15:03:42.164Z,31.80
2018-07-19T15:08:37.394Z,32.90
2018-07-19T15:11:04.958Z,32.30
2018-07-19T15:13:32.571Z,31.40
2018-07-19T15:16:00.132Z,31.20
2018-07-19T15:18:27.753Z,30.70
2018-07-19T15:20:55.320Z,30.00
2018-07-19T15:23:22.926Z,29.60
2018-07-19T15:25:50.523Z,29.80
2018-07-19T15:28:18.187Z,29.80
2018-07-19T15:30:45.784Z,29.70
2018-07-19T15:33:13.373Z,29.70
2018-07-19T15:35:40.970Z,29.90
2018-07-19T15:38:08.593Z,29.40
2018-07-19T15:40:36.223Z,29.60
2018-07-19T15:43:03.828Z,29.60
2018-07-19T15:45:31.575Z,29.50
2018-07-19T15:47:59.186Z,29.70
2018-07-19T15:50:26.797Z,29.70
2018-07-19T15:52:54.439Z,30.00
2018-07-19T15:57:56.439Z,30.10
2018-07-19T16:02:51.543Z,29.80
2018-07-19T16:05:19.139Z,30.50
2018-07-19T16:07:46.750Z,30.50
2018-07-19T16:10:14.297Z,30.00
2018-07-19T16:12:41.853Z,29.60
2018-07-19T16:15:09.470Z,29.30
2018-07-19T16:17:37.095Z,29.10
2018-07-19T16:20:05.035Z,29.60
2018-07-19T16:22:32.633Z,29.70
2018-07-19T16:25:00.525Z,29.70
2018-07-19T16:27:28.195Z,29.60
2018-07-19T16:29:55.773Z,30.00
2018-07-19T16:32:23.323Z,30.00
2018-07-19T16:34:50.907Z,30.20
2018-07-19T16:37:18.449Z,30.10
2018-07-19T16:39:46.007Z,30.40
2018-07-19T16:42:13.656Z,30.90
2018-07-19T16:44:41.227Z,31.00
2018-07-19T16:47:09.339Z,31.40
2018-07-19T16:49:36.938Z,31.00
2018-07-19T16:52:04.573Z,31.70
2018-07-19T16:54:32.175Z,31.20
2018-07-19T16:56:59.748Z,31.70
2018-07-19T16:59:27.366Z,32.30
2018-07-19T17:01:54.973Z,31.60
2018-07-19T17:04:22.556Z,31.60
2018-07-19T17:06:50.130Z,31.50
2018-07-19T17:09:17.762Z,31.20
2018-07-19T17:11:45.392Z,31.70
2018-07-19T17:14:12.940Z,32.10
2018-07-19T17:16:40.529Z,32.70
2018-07-19T17:19:08.128Z,32.60
2018-07-19T17:21:35.650Z,33.20
2018-07-19T17:26:30.748Z,33.20
2018-07-19T17:28:59.806Z,33.60
2018-07-19T17:31:27.440Z,34.30
2018-07-19T17:33:55.024Z,35.50
2018-07-19T17:36:22.599Z,36.40
2018-07-19T17:38:50.203Z,36.80
2018-07-19T17:41:17.805Z,36.20
2018-07-19T17:43:45.399Z,36.10
2018-07-19T17:46:13.149Z,36.20
2018-07-19T17:48:40.739Z,37.30
2018-07-19T17:51:08.301Z,38.40
2018-07-19T17:53:35.879Z,39.90
2018-07-19T17:56:03.539Z,39.60
2018-07-19T17:58:31.101Z,40.30
2018-07-19T18:00:58.709Z,40.80
2018-07-19T18:03:26.377Z,40.80
2018-07-19T18:05:54.031Z,40.70
2018-07-19T18:08:21.645Z,40.50
2018-07-19T18:10:49.330Z,40.90
2018-07-19T18:13:16.975Z,41.10
2018-07-19T18:15:44.643Z,41.50
2018-07-19T18:18:12.311Z,41.90
2018-07-19T18:20:39.919Z,42.30
2018-07-19T18:23:07.561Z,43.00
2018-07-19T18:25:35.187Z,44.10
2018-07-19T18:30:30.501Z,43.50
2018-07-19T18:32:58.197Z,43.90
2018-07-19T18:35:25.857Z,44.80
2018-07-19T18:37:53.488Z,45.90
2018-07-19T18:40:21.160Z,47.00
2018-07-19T18:42:48.735Z,47.80
2018-07-19T18:47:43.957Z,49.70
2018-07-19T18:50:11.603Z,50.70
2018-07-19T18:52:39.218Z,51.60
2018-07-19T18:55:06.835Z,52.00
2018-07-19T18:57:34.510Z,52.80
2018-07-19T19:00:02.176Z,53.70
2018-07-19T19:02:29.896Z,54.50
2018-07-19T19:04:57.532Z,55.60
2018-07-19T19:07:25.105Z,55.90
2018-07-19T19:09:52.791Z,56.50
2018-07-19T19:12:20.422Z,57.30
2018-07-19T19:14:48.068Z,57.30
2018-07-19T19:19:43.290Z,58.00
2018-07-19T19:22:10.978Z,57.90
2018-07-19T19:27:06.212Z,58.70
2018-07-19T19:29:33.856Z,58.80
2018-07-19T19:32:01.530Z,59.60
2018-07-19T19:34:29.259Z,60.90
2018-07-19T19:36:56.947Z,60.80
2018-07-19T19:41:52.377Z,60.20
2018-07-19T19:46:47.719Z,60.70
2018-07-19T19:49:15.349Z,60.70
2018-07-19T19:51:43.030Z,60.20
2018-07-19T19:54:10.712Z,60.10
2018-07-19T19:56:38.342Z,60.30
2018-07-19T19:59:06.050Z,60.40
2018-07-19T20:01:34.218Z,60.80
2018-07-19T20:04:02.167Z,61.10
2018-07-19T20:06:29.919Z,61.60
2018-07-19T20:08:57.663Z,62.20
2018-07-19T20:11:25.428Z,63.60
2018-07-19T20:13:53.185Z,63.80
2018-07-19T20:16:21.171Z,64.50
2018-07-19T20:18:49.119Z,65.00
2018-07-19T20:21:16.793Z,65.60
2018-07-19T20:23:44.701Z,66.30
2018-07-19T20:26:12.703Z,66.90
2018-07-19T20:28:40.429Z,67.20
2018-07-19T20:31:08.207Z,67.20
2018-07-19T20:33:35.872Z,67.10
2018-07-19T20:36:03.584Z,67.50
2018-07-19T20:38:31.237Z,68.20
2018-07-19T20:40:58.903Z,68.40
2018-07-19T20:43:26.582Z,68.30
2018-07-19T20:45:54.210Z,68.00
2018-07-19T20:48:21.901Z,68.20
2018-07-19T20:50:49.512Z,69.50
2018-07-19T20:53:17.203Z,70.10
2018-07-19T20:55:45.384Z,70.70
2018-07-19T20:58:13.036Z,71.70
2018-07-19T21:00:40.714Z,72.30
2018-07-19T21:03:08.267Z,72.40
2018-07-19T21:05:35.864Z,72.70
2018-07-19T21:08:03.460Z,73.00
2018-07-19T21:10:31.057Z,72.80
2018-07-19T21:12:58.673Z,72.60
2018-07-19T21:15:26.210Z,73.00
2018-07-19T21:20:21.314Z,73.50
2018-07-19T21:22:48.916Z,73.50
2018-07-19T21:25:16.504Z,73.80
2018-07-19T21:27:44.091Z,74.20
2018-07-19T21:30:11.665Z,74.50
2018-07-19T21:32:39.254Z,74.30
2018-07-19T21:35:06.826Z,74.50
2018-07-19T21:37:34.407Z,74.80
2018-07-19T21:40:02.044Z,75.00
2018-07-19T21:42:29.614Z,75.40
2018-07-19T21:44:57.214Z,75.60
2018-07-19T21:47:24.833Z,75.90
2018-07-19T21:49:52.458Z,76.30
2018-07-19T21:52:20.013Z,76.00
2018-07-19T21:54:47.565Z,76.40
2018-07-19T21:57:15.160Z,76.70
2018-07-19T21:59:42.722Z,77.20
2018-07-19T22:02:12.717Z,78.30
2018-07-19T22:04:40.294Z,79.20
2018-07-19T22:07:07.844Z,79.60
2018-07-19T22:09:35.440Z,80.40
2018-07-19T22:12:03.025Z,80.90
2018-07-19T22:14:30.582Z,81.60
2018-07-19T22:16:58.166Z,82.30
2018-07-19T22:19:25.720Z,82.50
2018-07-19T22:21:53.317Z,83.10
2018-07-19T22:24:20.853Z,83.70
2018-07-19T22:26:48.413Z,85.00
2018-07-19T22:29:16.006Z,84.70
2018-07-19T22:31:43.557Z,84.70
2018-07-19T22:34:11.141Z,85.50
2018-07-19T22:36:38.737Z,85.90
2018-07-19T22:39:08.451Z,86.40
2018-07-19T22:41:36.055Z,87.00
2018-07-19T22:44:03.717Z,87.70
2018-07-19T22:46:31.345Z,88.30
2018-07-19T22:48:58.878Z,88.70
2018-07-19T22:51:26.484Z,89.00
2018-07-19T22:53:54.614Z,89.30
2018-07-19T22:56:22.222Z,89.70
2018-07-19T22:58:49.774Z,90.00
2018-07-19T23:01:17.336Z,90.20
2018-07-19T23:03:44.897Z,90.20
2018-07-19T23:06:12.497Z,90.20
2018-07-19T23:08:40.063Z,90.20
2018-07-19T23:11:07.666Z,90.30
2018-07-19T23:13:35.269Z,90.30
2018-07-19T23:18:30.369Z,90.40
2018-07-19T23:20:57.904Z,90.40
2018-07-19T23:23:25.392Z,90.50
2018-07-19T23:25:52.935Z,90.60
2018-07-19T23:28:20.554Z,90.80
2018-07-19T23:30:48.172Z,91.00
2018-07-19T23:36:02.894Z,91.30
2018-07-19T23:38:49.316Z,91.50
2018-07-19T23:41:21.102Z,91.60
2018-07-19T23:43:52.286Z,91.70
2018-07-19T23:46:27.090Z,91.90
2018-07-19T23:48:55.366Z,92.10
2018-07-19T23:51:23.006Z,92.10
2018-07-19T23:53:53.255Z,92.20
2018-07-19T23:56:20.917Z,92.30
2018-07-19T23:58:48.472Z,92.40
